Jefferson Hills, PA

3:12 PM EDT on September 03, 2015 (GMT -0400)
Jefferson Hills | | Change Station
CLOSE
Current Station
Personal Weather Station
Location: Clairton, PA
Elevation: 919 ft
Nearby Weather Stations

Elev 919 ft 40.29 °N, 79.91 °W | Updated 8 seconds ago

Mostly Cloudy
Mostly Cloudy
86.7 °F
Feels Like 85 °F
N
0.0
Wind Variable Wind from SE
Gusts 0.0 mph

Today
High -- | Low -- °F
--% Chance of Precip.
Yesterday
High -- | Low -- °F
Precip. -- in
6:48 AM 7:48 PM
Waning Gibbous, 68% visible
Pressure 29.93 in
Visibility 10.0 miles
Clouds Scattered Clouds 4500 ft
Mostly Cloudy 11000 ft
Heat Index 85 °F
Dew Point 53 °F
Humidity 32%
Rainfall 0.00 in
Snow Depth Not available.
UV 1.0 out of 12
Pollen 10.10 out of 12
Air Quality Not available.
Flu Activity Not available.
METAR KAGC 031853Z 07005KT 10SM TSRA SCT045 BKN110 28/16 A2995 RMK AO2 RAB20 TSB20 SLP135 TS VIC E MOV E OCNL LTGICCG P0000 T02830156
Pressure 29.93 in
Visibility 10.0 miles
Clouds Scattered Clouds 4500 ft
Mostly Cloudy 11000 ft
Heat Index 85 °F
Dew Point 53 °F
Humidity 32%
Rainfall 0.00 in
Snow Depth Not available.
UV 1.0 out of 12
Pollen 10.10 out of 12
Air Quality Not available.
Flu Activity Not available.
METAR KAGC 031853Z 07005KT 10SM TSRA SCT045 BKN110 28/16 A2995 RMK AO2 RAB20 TSB20 SLP135 TS VIC E MOV E OCNL LTGICCG P0000 T02830156

10-Day Weather Forecast

×

Almanac

Astronomy

Sep. 03, 2015 Rise Set
Actual Time
Civil Twilight
Nautical Twilight
Astronomical Twilight
Moon
Length of Visible Light
Length of Day
Tomorrow will be .
, % of the Moon is Illuminated

Today's Extremes

State Highs State Lows

Community

WunderPhotos

Upload Photos

1,852,014 photos uploaded!

WunderBlogs® & News

Nearby

Air Quality

  Air Quality AQ Index Pollutant
Not available.

Snow Depth

Station Depth Elevation

Earthquake Activity

City Distance Mag. Time & Date
Minimum magnitude displayed is 2.5.

Coastal Water Temperatures

Place Temperature

Stations

Nearby Weather Stations

Station Location Temp. Windchill Dew Point Humidity Wind Precip. Elev Updated Type